La Joya, Texas
Current Conditions -  °F | °C
As of 10:53 AM on Tuesday 27 Jan 2015 (Local Time) from KMFE Reporting Station
Clear Clear  
Wind Chill: 71°   Ceiling: Unl
Heat Index: 71°   Visibility: 10mi
Dew Point: 40°   Wind: 5mph
Humidity: 32%   Direction: 310°NW
Pressure: 30.25"   Gusts: NA
Location:  26.25°N, 98.48°W
Report Text: KMFE 271653Z 31004KT 10SM CLR 22/04 A3025 RMK AO2 SLP243 T02170044
Loading
Personal Weather Stations






























Interactive Weather Map New forecast layout! Learn more

10-Day Weather Forecast

Advertisements
Track Severe Weather on mobile